sensor_id;sensor_type;location;lat;lon;timestamp;temperature;humidity
12264;DHT22;6194;49.010;8.414;2023-04-08T00:00:36;9.60;99.90
12264;DHT22;6194;49.010;8.414;2023-04-08T00:03:02;9.70;99.90
12264;DHT22;6194;49.010;8.414;2023-04-08T00:05:28;9.70;99.90
12264;DHT22;6194;49.010;8.414;2023-04-08T00:07:54;9.70;99.90
12264;DHT22;6194;49.010;8.414;2023-04-08T00:10:19;9.60;99.90
12264;DHT22;6194;49.010;8.414;2023-04-08T00:12:46;9.50;99.90
12264;DHT22;6194;49.010;8.414;2023-04-08T00:15:12;9.50;99.90
12264;DHT22;6194;49.010;8.414;2023-04-08T00:17:38;9.50;99.90
12264;DHT22;6194;49.010;8.414;2023-04-08T00:20:04;9.50;99.90
12264;DHT22;6194;49.010;8.414;2023-04-08T00:22:30;9.50;99.90
12264;DHT22;6194;49.010;8.414;2023-04-08T00:24:57;9.50;99.90
12264;DHT22;6194;49.010;8.414;2023-04-08T00:27:22;9.50;99.90
12264;DHT22;6194;49.010;8.414;2023-04-08T00:29:50;9.40;99.90
12264;DHT22;6194;49.010;8.414;2023-04-08T00:32:15;9.40;99.90
12264;DHT22;6194;49.010;8.414;2023-04-08T00:34:41;9.30;99.90
12264;DHT22;6194;49.010;8.414;2023-04-08T00:37:09;9.40;99.90
12264;DHT22;6194;49.010;8.414;2023-04-08T00:39:36;9.30;99.90
12264;DHT22;6194;49.010;8.414;2023-04-08T00:42:02;9.30;99.90
12264;DHT22;6194;49.010;8.414;2023-04-08T00:44:28;9.30;99.90
12264;DHT22;6194;49.010;8.414;2023-04-08T00:46:54;9.40;99.90
12264;DHT22;6194;49.010;8.414;2023-04-08T00:49:19;9.40;99.90
12264;DHT22;6194;49.010;8.414;2023-04-08T00:51:45;9.30;99.90
12264;DHT22;6194;49.010;8.414;2023-04-08T00:54:11;9.30;99.90
12264;DHT22;6194;49.010;8.414;2023-04-08T00:56:36;9.30;99.90
12264;DHT22;6194;49.010;8.414;2023-04-08T00:59:03;9.30;99.90
12264;DHT22;6194;49.010;8.414;2023-04-08T01:07:11;9.30;99.90
12264;DHT22;6194;49.010;8.414;2023-04-08T01:09:43;9.20;99.90
12264;DHT22;6194;49.010;8.414;2023-04-08T01:12:11;9.20;99.90
12264;DHT22;6194;49.010;8.414;2023-04-08T01:14:42;9.20;99.90
12264;DHT22;6194;49.010;8.414;2023-04-08T01:17:10;9.20;99.90
12264;DHT22;6194;49.010;8.414;2023-04-08T01:19:38;9.20;99.90
12264;DHT22;6194;49.010;8.414;2023-04-08T01:22:26;9.60;99.90
12264;DHT22;6194;49.010;8.414;2023-04-08T01:25:03;9.30;99.90
12264;DHT22;6194;49.010;8.414;2023-04-08T01:27:31;9.20;99.90
12264;DHT22;6194;49.010;8.414;2023-04-08T01:29:58;9.30;99.90
12264;DHT22;6194;49.010;8.414;2023-04-08T01:32:24;9.20;99.90
12264;DHT22;6194;49.010;8.414;2023-04-08T01:34:52;9.20;99.90
12264;DHT22;6194;49.010;8.414;2023-04-08T01:37:19;9.50;99.90
12264;DHT22;6194;49.010;8.414;2023-04-08T01:39:46;9.10;99.90
12264;DHT22;6194;49.010;8.414;2023-04-08T01:42:13;9.10;99.90
12264;DHT22;6194;49.010;8.414;2023-04-08T01:44:40;9.10;99.90
12264;DHT22;6194;49.010;8.414;2023-04-08T01:47:07;9.10;99.90
12264;DHT22;6194;49.010;8.414;2023-04-08T01:49:34;9.10;99.90
12264;DHT22;6194;49.010;8.414;2023-04-08T01:52:00;9.00;99.90
12264;DHT22;6194;49.010;8.414;2023-04-08T01:54:26;9.00;99.90
12264;DHT22;6194;49.010;8.414;2023-04-08T01:56:53;9.00;99.90
12264;DHT22;6194;49.010;8.414;2023-04-08T01:59:22;9.00;99.90
12264;DHT22;6194;49.010;8.414;2023-04-08T02:01:50;9.00;99.90
12264;DHT22;6194;49.010;8.414;2023-04-08T02:04:16;9.00;99.90
12264;DHT22;6194;49.010;8.414;2023-04-08T02:06:42;9.00;99.90
12264;DHT22;6194;49.010;8.414;2023-04-08T02:09:07;9.00;99.90
12264;DHT22;6194;49.010;8.414;2023-04-08T02:11:33;9.00;99.90
12264;DHT22;6194;49.010;8.414;2023-04-08T02:13:59;9.00;99.90
12264;DHT22;6194;49.010;8.414;2023-04-08T02:16:52;9.00;99.90
12264;DHT22;6194;49.010;8.414;2023-04-08T02:22:16;8.90;99.90
12264;DHT22;6194;49.010;8.414;2023-04-08T02:24:42;8.90;99.90
12264;DHT22;6194;49.010;8.414;2023-04-08T02:27:09;9.20;99.90
12264;DHT22;6194;49.010;8.414;2023-04-08T02:29:35;8.90;99.90
12264;DHT22;6194;49.010;8.414;2023-04-08T02:32:03;8.90;99.90
12264;DHT22;6194;49.010;8.414;2023-04-08T02:34:29;8.80;99.90
12264;DHT22;6194;49.010;8.414;2023-04-08T02:36:56;8.80;99.90
12264;DHT22;6194;49.010;8.414;2023-04-08T02:39:30;9.00;99.90
12264;DHT22;6194;49.010;8.414;2023-04-08T02:41:55;8.80;99.90
12264;DHT22;6194;49.010;8.414;2023-04-08T02:44:22;8.80;99.90
12264;DHT22;6194;49.010;8.414;2023-04-08T02:46:48;8.80;99.90
12264;DHT22;6194;49.010;8.414;2023-04-08T02:49:13;8.90;99.90
12264;DHT22;6194;49.010;8.414;2023-04-08T02:51:39;8.80;99.90
12264;DHT22;6194;49.010;8.414;2023-04-08T02:54:04;8.80;99.90
12264;DHT22;6194;49.010;8.414;2023-04-08T02:56:30;8.70;99.90
12264;DHT22;6194;49.010;8.414;2023-04-08T02:58:56;8.70;99.90
12264;DHT22;6194;49.010;8.414;2023-04-08T03:01:22;8.80;99.90
12264;DHT22;6194;49.010;8.414;2023-04-08T03:03:47;8.70;99.90
12264;DHT22;6194;49.010;8.414;2023-04-08T03:06:13;8.70;99.90
12264;DHT22;6194;49.010;8.414;2023-04-08T03:08:39;8.70;99.90
12264;DHT22;6194;49.010;8.414;2023-04-08T03:11:04;8.80;99.90
12264;DHT22;6194;49.010;8.414;2023-04-08T03:13:30;8.80;99.90
12264;DHT22;6194;49.010;8.414;2023-04-08T03:15:56;8.80;99.90
12264;DHT22;6194;49.010;8.414;2023-04-08T03:18:21;8.80;99.90
12264;DHT22;6194;49.010;8.414;2023-04-08T03:20:47;8.80;99.90
12264;DHT22;6194;49.010;8.414;2023-04-08T03:23:13;8.70;99.90
12264;DHT22;6194;49.010;8.414;2023-04-08T03:25:38;8.70;99.90
12264;DHT22;6194;49.010;8.414;2023-04-08T03:28:04;8.70;99.90
12264;DHT22;6194;49.010;8.414;2023-04-08T03:30:30;8.70;99.90
12264;DHT22;6194;49.010;8.414;2023-04-08T03:32:55;8.70;99.90
12264;DHT22;6194;49.010;8.414;2023-04-08T03:35:21;8.70;99.90
12264;DHT22;6194;49.010;8.414;2023-04-08T03:37:47;8.70;99.90
12264;DHT22;6194;49.010;8.414;2023-04-08T03:40:12;8.70;99.90
12264;DHT22;6194;49.010;8.414;2023-04-08T03:42:38;8.70;99.90
12264;DHT22;6194;49.010;8.414;2023-04-08T03:45:04;8.70;99.90
12264;DHT22;6194;49.010;8.414;2023-04-08T03:47:30;8.70;99.90
12264;DHT22;6194;49.010;8.414;2023-04-08T03:49:55;8.80;99.90
12264;DHT22;6194;49.010;8.414;2023-04-08T03:52:22;8.70;99.90
12264;DHT22;6194;49.010;8.414;2023-04-08T03:54:48;9.00;99.90
12264;DHT22;6194;49.010;8.414;2023-04-08T03:57:13;8.60;99.90
12264;DHT22;6194;49.010;8.414;2023-04-08T03:59:40;8.60;99.90
12264;DHT22;6194;49.010;8.414;2023-04-08T04:02:06;8.50;99.90
12264;DHT22;6194;49.010;8.414;2023-04-08T04:04:31;8.40;99.90
12264;DHT22;6194;49.010;8.414;2023-04-08T04:06:58;8.30;99.90
12264;DHT22;6194;49.010;8.414;2023-04-08T04:09:23;8.20;99.90
12264;DHT22;6194;49.010;8.414;2023-04-08T04:11:49;8.20;99.90
12264;DHT22;6194;49.010;8.414;2023-04-08T04:14:14;8.10;99.90
12264;DHT22;6194;49.010;8.414;2023-04-08T04:16:40;8.10;99.90
12264;DHT22;6194;49.010;8.414;2023-04-08T04:19:05;8.00;99.90
12264;DHT22;6194;49.010;8.414;2023-04-08T04:21:31;7.90;99.90
12264;DHT22;6194;49.010;8.414;2023-04-08T04:23:57;7.80;99.90
12264;DHT22;6194;49.010;8.414;2023-04-08T04:26:23;7.90;99.90
12264;DHT22;6194;49.010;8.414;2023-04-08T04:28:48;7.90;99.90
12264;DHT22;6194;49.010;8.414;2023-04-08T04:31:18;7.90;99.90
12264;DHT22;6194;49.010;8.414;2023-04-08T04:33:44;7.90;99.90
12264;DHT22;6194;49.010;8.414;2023-04-08T04:36:11;8.00;99.90
12264;DHT22;6194;49.010;8.414;2023-04-08T04:38:37;8.00;99.90
12264;DHT22;6194;49.010;8.414;2023-04-08T04:41:03;8.00;99.90
12264;DHT22;6194;49.010;8.414;2023-04-08T04:43:29;8.00;99.90
12264;DHT22;6194;49.010;8.414;2023-04-08T04:45:54;8.10;99.90
12264;DHT22;6194;49.010;8.414;2023-04-08T04:48:21;8.10;99.90
12264;DHT22;6194;49.010;8.414;2023-04-08T04:50:57;8.40;99.90
12264;DHT22;6194;49.010;8.414;2023-04-08T04:53:23;8.10;99.90
12264;DHT22;6194;49.010;8.414;2023-04-08T04:55:49;8.20;99.90
12264;DHT22;6194;49.010;8.414;2023-04-08T04:58:15;8.10;99.90
12264;DHT22;6194;49.010;8.414;2023-04-08T05:00:41;8.10;99.90
12264;DHT22;6194;49.010;8.414;2023-04-08T05:03:07;8.20;99.90
12264;DHT22;6194;49.010;8.414;2023-04-08T05:05:32;8.20;99.90
12264;DHT22;6194;49.010;8.414;2023-04-08T05:07:58;8.10;99.90
12264;DHT22;6194;49.010;8.414;2023-04-08T05:10:23;8.20;99.90
12264;DHT22;6194;49.010;8.414;2023-04-08T05:12:49;8.20;99.90
12264;DHT22;6194;49.010;8.414;2023-04-08T05:15:15;8.20;99.90
12264;DHT22;6194;49.010;8.414;2023-04-08T05:17:40;8.20;99.90
12264;DHT22;6194;49.010;8.414;2023-04-08T05:20:06;8.50;99.90
12264;DHT22;6194;49.010;8.414;2023-04-08T05:22:32;8.20;99.90
12264;DHT22;6194;49.010;8.414;2023-04-08T05:24:58;8.20;99.90
12264;DHT22;6194;49.010;8.414;2023-04-08T05:27:24;8.30;99.90
12264;DHT22;6194;49.010;8.414;2023-04-08T05:29:50;8.50;99.90
12264;DHT22;6194;49.010;8.414;2023-04-08T05:32:16;8.30;99.90
12264;DHT22;6194;49.010;8.414;2023-04-08T05:34:42;8.40;99.90
12264;DHT22;6194;49.010;8.414;2023-04-08T05:37:07;8.50;99.90
12264;DHT22;6194;49.010;8.414;2023-04-08T05:39:33;8.50;99.90
12264;DHT22;6194;49.010;8.414;2023-04-08T05:41:58;8.50;99.90
12264;DHT22;6194;49.010;8.414;2023-04-08T05:44:24;8.50;99.90
12264;DHT22;6194;49.010;8.414;2023-04-08T05:46:50;8.70;99.90
12264;DHT22;6194;49.010;8.414;2023-04-08T05:49:16;8.80;99.90
12264;DHT22;6194;49.010;8.414;2023-04-08T05:51:42;8.80;99.90
12264;DHT22;6194;49.010;8.414;2023-04-08T05:54:07;9.20;99.90
12264;DHT22;6194;49.010;8.414;2023-04-08T05:56:33;9.10;99.90
12264;DHT22;6194;49.010;8.414;2023-04-08T05:58:59;9.40;99.90
12264;DHT22;6194;49.010;8.414;2023-04-08T06:01:25;9.30;99.90
12264;DHT22;6194;49.010;8.414;2023-04-08T06:03:50;9.30;99.90
12264;DHT22;6194;49.010;8.414;2023-04-08T06:06:17;9.30;99.90
12264;DHT22;6194;49.010;8.414;2023-04-08T06:08:42;9.40;99.90
12264;DHT22;6194;49.010;8.414;2023-04-08T06:11:08;9.40;99.90
12264;DHT22;6194;49.010;8.414;2023-04-08T06:13:34;9.50;99.90
12264;DHT22;6194;49.010;8.414;2023-04-08T06:16:09;9.60;99.90
12264;DHT22;6194;49.010;8.414;2023-04-08T06:18:35;9.60;99.90
12264;DHT22;6194;49.010;8.414;2023-04-08T06:21:01;9.70;99.90
12264;DHT22;6194;49.010;8.414;2023-04-08T06:23:27;9.80;99.90
12264;DHT22;6194;49.010;8.414;2023-04-08T06:25:52;9.80;99.90
12264;DHT22;6194;49.010;8.414;2023-04-08T06:28:18;10.00;99.90
12264;DHT22;6194;49.010;8.414;2023-04-08T06:30:44;10.10;99.90
12264;DHT22;6194;49.010;8.414;2023-04-08T06:33:09;10.20;99.90
12264;DHT22;6194;49.010;8.414;2023-04-08T06:35:35;10.30;99.90
12264;DHT22;6194;49.010;8.414;2023-04-08T06:38:02;10.40;99.90
12264;DHT22;6194;49.010;8.414;2023-04-08T06:40:28;10.40;99.90
12264;DHT22;6194;49.010;8.414;2023-04-08T06:42:53;10.60;99.90
12264;DHT22;6194;49.010;8.414;2023-04-08T06:45:19;10.50;99.90
12264;DHT22;6194;49.010;8.414;2023-04-08T06:47:45;10.50;99.90
12264;DHT22;6194;49.010;8.414;2023-04-08T06:50:10;10.50;99.90
12264;DHT22;6194;49.010;8.414;2023-04-08T06:52:36;10.50;99.90
12264;DHT22;6194;49.010;8.414;2023-04-08T06:55:01;10.70;99.90
12264;DHT22;6194;49.010;8.414;2023-04-08T06:57:27;10.80;99.90
12264;DHT22;6194;49.010;8.414;2023-04-08T06:59:52;10.90;99.90
12264;DHT22;6194;49.010;8.414;2023-04-08T07:02:18;10.90;99.90
12264;DHT22;6194;49.010;8.414;2023-04-08T07:04:44;10.80;99.90
12264;DHT22;6194;49.010;8.414;2023-04-08T07:07:09;11.00;99.90
12264;DHT22;6194;49.010;8.414;2023-04-08T07:09:35;11.30;99.90
12264;DHT22;6194;49.010;8.414;2023-04-08T07:12:02;11.60;99.90
12264;DHT22;6194;49.010;8.414;2023-04-08T07:14:28;11.70;99.90
12264;DHT22;6194;49.010;8.414;2023-04-08T07:16:54;11.90;99.90
12264;DHT22;6194;49.010;8.414;2023-04-08T07:19:20;12.10;99.90
12264;DHT22;6194;49.010;8.414;2023-04-08T07:21:48;12.00;99.90
12264;DHT22;6194;49.010;8.414;2023-04-08T07:24:14;12.00;99.90
12264;DHT22;6194;49.010;8.414;2023-04-08T07:26:40;12.10;99.90
12264;DHT22;6194;49.010;8.414;2023-04-08T07:29:06;11.90;99.90
12264;DHT22;6194;49.010;8.414;2023-04-08T07:31:31;12.10;99.90
12264;DHT22;6194;49.010;8.414;2023-04-08T07:33:57;11.90;99.90
12264;DHT22;6194;49.010;8.414;2023-04-08T07:36:23;11.90;99.90
12264;DHT22;6194;49.010;8.414;2023-04-08T07:38:48;12.00;99.90
12264;DHT22;6194;49.010;8.414;2023-04-08T07:41:14;11.50;99.90
12264;DHT22;6194;49.010;8.414;2023-04-08T07:43:40;11.10;99.90
12264;DHT22;6194;49.010;8.414;2023-04-08T07:46:06;11.10;99.90
12264;DHT22;6194;49.010;8.414;2023-04-08T07:48:32;11.40;99.90
12264;DHT22;6194;49.010;8.414;2023-04-08T07:51:02;11.20;99.90
12264;DHT22;6194;49.010;8.414;2023-04-08T07:53:29;11.30;99.90
12264;DHT22;6194;49.010;8.414;2023-04-08T07:55:54;11.50;99.90
12264;DHT22;6194;49.010;8.414;2023-04-08T07:58:20;11.70;99.90
12264;DHT22;6194;49.010;8.414;2023-04-08T08:00:46;12.00;99.90
12264;DHT22;6194;49.010;8.414;2023-04-08T08:03:11;12.20;99.90
12264;DHT22;6194;49.010;8.414;2023-04-08T08:05:37;11.80;99.90
12264;DHT22;6194;49.010;8.414;2023-04-08T08:08:03;11.60;99.90
12264;DHT22;6194;49.010;8.414;2023-04-08T08:10:28;11.20;99.90
12264;DHT22;6194;49.010;8.414;2023-04-08T08:12:54;10.90;99.90
12264;DHT22;6194;49.010;8.414;2023-04-08T08:15:20;11.00;99.90
12264;DHT22;6194;49.010;8.414;2023-04-08T08:17:46;11.00;99.90
12264;DHT22;6194;49.010;8.414;2023-04-08T08:20:11;11.20;99.90
12264;DHT22;6194;49.010;8.414;2023-04-08T08:22:37;11.30;99.90
12264;DHT22;6194;49.010;8.414;2023-04-08T08:25:04;11.70;99.90
12264;DHT22;6194;49.010;8.414;2023-04-08T08:27:30;12.00;99.90
12264;DHT22;6194;49.010;8.414;2023-04-08T08:29:56;12.60;99.90
12264;DHT22;6194;49.010;8.414;2023-04-08T08:32:22;13.40;99.90
12264;DHT22;6194;49.010;8.414;2023-04-08T08:34:48;13.20;99.90
12264;DHT22;6194;49.010;8.414;2023-04-08T08:37:13;12.90;99.90
12264;DHT22;6194;49.010;8.414;2023-04-08T08:39:39;12.90;99.90
12264;DHT22;6194;49.010;8.414;2023-04-08T08:42:05;12.90;99.90
12264;DHT22;6194;49.010;8.414;2023-04-08T08:44:31;12.70;99.90
12264;DHT22;6194;49.010;8.414;2023-04-08T08:46:56;12.70;99.90
12264;DHT22;6194;49.010;8.414;2023-04-08T08:49:22;12.80;99.90
12264;DHT22;6194;49.010;8.414;2023-04-08T08:51:48;12.90;99.90
12264;DHT22;6194;49.010;8.414;2023-04-08T08:54:15;13.00;99.90
12264;DHT22;6194;49.010;8.414;2023-04-08T08:56:41;13.10;99.90
12264;DHT22;6194;49.010;8.414;2023-04-08T08:59:08;13.30;99.90
12264;DHT22;6194;49.010;8.414;2023-04-08T09:01:39;13.00;99.90
12264;DHT22;6194;49.010;8.414;2023-04-08T09:06:31;13.50;99.90
12264;DHT22;6194;49.010;8.414;2023-04-08T09:08:57;13.50;99.90
12264;DHT22;6194;49.010;8.414;2023-04-08T09:11:22;13.50;99.90
12264;DHT22;6194;49.010;8.414;2023-04-08T09:13:48;13.30;99.90
12264;DHT22;6194;49.010;8.414;2023-04-08T09:16:15;13.20;99.90
12264;DHT22;6194;49.010;8.414;2023-04-08T09:18:43;13.40;99.90
12264;DHT22;6194;49.010;8.414;2023-04-08T09:21:11;13.80;99.90
12264;DHT22;6194;49.010;8.414;2023-04-08T09:23:50;14.40;99.90
12264;DHT22;6194;49.010;8.414;2023-04-08T09:26:18;14.40;99.90
12264;DHT22;6194;49.010;8.414;2023-04-08T09:29:04;14.10;99.90
12264;DHT22;6194;49.010;8.414;2023-04-08T09:31:39;13.90;99.90
12264;DHT22;6194;49.010;8.414;2023-04-08T09:34:12;13.80;99.90
12264;DHT22;6194;49.010;8.414;2023-04-08T09:36:38;13.30;99.90
12264;DHT22;6194;49.010;8.414;2023-04-08T09:39:05;12.90;99.90
12264;DHT22;6194;49.010;8.414;2023-04-08T09:41:35;13.00;99.90
12264;DHT22;6194;49.010;8.414;2023-04-08T09:44:09;13.20;99.90
12264;DHT22;6194;49.010;8.414;2023-04-08T09:52:10;13.10;99.90
12264;DHT22;6194;49.010;8.414;2023-04-08T09:57:07;13.10;99.90
12264;DHT22;6194;49.010;8.414;2023-04-08T09:59:35;13.10;99.90
12264;DHT22;6194;49.010;8.414;2023-04-08T10:02:07;13.60;99.90
12264;DHT22;6194;49.010;8.414;2023-04-08T10:04:37;14.10;99.90
12264;DHT22;6194;49.010;8.414;2023-04-08T10:07:06;14.30;99.90
12264;DHT22;6194;49.010;8.414;2023-04-08T10:09:33;14.50;99.90
12264;DHT22;6194;49.010;8.414;2023-04-08T10:12:00;14.40;99.90
12264;DHT22;6194;49.010;8.414;2023-04-08T10:14:26;14.10;99.90
12264;DHT22;6194;49.010;8.414;2023-04-08T10:17:26;14.60;99.90
12264;DHT22;6194;49.010;8.414;2023-04-08T10:19:52;14.90;99.90
12264;DHT22;6194;49.010;8.414;2023-04-08T10:27:44;15.10;99.90
12264;DHT22;6194;49.010;8.414;2023-04-08T10:32:51;14.80;99.90
12264;DHT22;6194;49.010;8.414;2023-04-08T10:35:17;15.30;99.90
12264;DHT22;6194;49.010;8.414;2023-04-08T10:37:53;15.60;99.90
12264;DHT22;6194;49.010;8.414;2023-04-08T10:40:18;15.60;99.90
12264;DHT22;6194;49.010;8.414;2023-04-08T10:42:44;15.70;99.90
12264;DHT22;6194;49.010;8.414;2023-04-08T10:45:10;15.90;99.90
12264;DHT22;6194;49.010;8.414;2023-04-08T10:47:40;15.70;99.90
12264;DHT22;6194;49.010;8.414;2023-04-08T10:50:16;15.80;99.90
12264;DHT22;6194;49.010;8.414;2023-04-08T10:52:50;15.80;99.90
12264;DHT22;6194;49.010;8.414;2023-04-08T10:55:24;15.90;99.90
12264;DHT22;6194;49.010;8.414;2023-04-08T10:57:51;16.00;99.90
12264;DHT22;6194;49.010;8.414;2023-04-08T11:00:18;15.90;99.90
12264;DHT22;6194;49.010;8.414;2023-04-08T11:02:44;15.80;99.90
12264;DHT22;6194;49.010;8.414;2023-04-08T11:05:10;15.20;99.90
12264;DHT22;6194;49.010;8.414;2023-04-08T11:07:40;15.10;99.90
12264;DHT22;6194;49.010;8.414;2023-04-08T11:10:09;15.30;99.90
12264;DHT22;6194;49.010;8.414;2023-04-08T11:12:35;15.20;99.90
12264;DHT22;6194;49.010;8.414;2023-04-08T11:15:03;15.00;99.90
12264;DHT22;6194;49.010;8.414;2023-04-08T11:17:29;15.00;99.90
12264;DHT22;6194;49.010;8.414;2023-04-08T11:19:55;15.10;99.90
12264;DHT22;6194;49.010;8.414;2023-04-08T11:22:27;15.10;99.90
12264;DHT22;6194;49.010;8.414;2023-04-08T11:24:53;15.00;99.20
12264;DHT22;6194;49.010;8.414;2023-04-08T11:27:20;14.70;99.20
12264;DHT22;6194;49.010;8.414;2023-04-08T11:29:50;14.70;98.90
12264;DHT22;6194;49.010;8.414;2023-04-08T11:32:16;14.50;97.60
12264;DHT22;6194;49.010;8.414;2023-04-08T11:34:42;14.20;98.70
12264;DHT22;6194;49.010;8.414;2023-04-08T11:37:08;14.20;97.70
12264;DHT22;6194;49.010;8.414;2023-04-08T11:39:33;13.90;96.90
12264;DHT22;6194;49.010;8.414;2023-04-08T11:41:59;13.80;97.20
12264;DHT22;6194;49.010;8.414;2023-04-08T11:44:31;13.70;97.40
12264;DHT22;6194;49.010;8.414;2023-04-08T11:46:57;13.70;96.20
12264;DHT22;6194;49.010;8.414;2023-04-08T11:49:23;13.60;96.60
12264;DHT22;6194;49.010;8.414;2023-04-08T11:51:58;14.10;97.80
12264;DHT22;6194;49.010;8.414;2023-04-08T11:54:31;14.00;98.00
12264;DHT22;6194;49.010;8.414;2023-04-08T11:56:57;14.10;98.40
12264;DHT22;6194;49.010;8.414;2023-04-08T11:59:24;14.40;97.80
12264;DHT22;6194;49.010;8.414;2023-04-08T12:01:51;14.60;96.30
12264;DHT22;6194;49.010;8.414;2023-04-08T12:04:16;14.50;96.80
12264;DHT22;6194;49.010;8.414;2023-04-08T12:06:42;14.60;96.90
12264;DHT22;6194;49.010;8.414;2023-04-08T12:09:11;14.90;96.60
12264;DHT22;6194;49.010;8.414;2023-04-08T12:11:37;15.30;96.70
12264;DHT22;6194;49.010;8.414;2023-04-08T12:14:02;15.20;97.90
12264;DHT22;6194;49.010;8.414;2023-04-08T12:16:28;14.90;98.40
12264;DHT22;6194;49.010;8.414;2023-04-08T12:18:53;14.70;99.90
12264;DHT22;6194;49.010;8.414;2023-04-08T12:21:19;14.60;99.90
12264;DHT22;6194;49.010;8.414;2023-04-08T12:23:44;14.80;99.90
12264;DHT22;6194;49.010;8.414;2023-04-08T12:26:10;15.20;99.90
12264;DHT22;6194;49.010;8.414;2023-04-08T12:28:36;15.50;99.90
12264;DHT22;6194;49.010;8.414;2023-04-08T12:31:02;15.20;99.90
12264;DHT22;6194;49.010;8.414;2023-04-08T12:33:28;15.20;99.70
12264;DHT22;6194;49.010;8.414;2023-04-08T12:35:53;15.30;98.90
12264;DHT22;6194;49.010;8.414;2023-04-08T12:38:19;14.90;98.20
12264;DHT22;6194;49.010;8.414;2023-04-08T12:40:45;15.20;97.90
12264;DHT22;6194;49.010;8.414;2023-04-08T12:43:11;15.50;98.00
12264;DHT22;6194;49.010;8.414;2023-04-08T12:45:37;15.50;97.80
12264;DHT22;6194;49.010;8.414;2023-04-08T12:48:02;15.20;97.90
12264;DHT22;6194;49.010;8.414;2023-04-08T12:50:28;15.20;96.70
12264;DHT22;6194;49.010;8.414;2023-04-08T12:52:53;15.10;95.30
12264;DHT22;6194;49.010;8.414;2023-04-08T12:55:19;14.80;95.70
12264;DHT22;6194;49.010;8.414;2023-04-08T12:57:49;14.80;95.00
12264;DHT22;6194;49.010;8.414;2023-04-08T13:00:15;15.20;94.90
12264;DHT22;6194;49.010;8.414;2023-04-08T13:02:41;15.00;94.40
12264;DHT22;6194;49.010;8.414;2023-04-08T13:05:07;15.00;94.60
12264;DHT22;6194;49.010;8.414;2023-04-08T13:07:32;15.00;94.60
12264;DHT22;6194;49.010;8.414;2023-04-08T13:09:58;15.00;94.30
12264;DHT22;6194;49.010;8.414;2023-04-08T13:12:23;14.90;94.20
12264;DHT22;6194;49.010;8.414;2023-04-08T13:14:49;15.10;93.90
12264;DHT22;6194;49.010;8.414;2023-04-08T13:17:14;14.90;94.10
12264;DHT22;6194;49.010;8.414;2023-04-08T13:19:40;14.70;94.40
12264;DHT22;6194;49.010;8.414;2023-04-08T13:22:06;15.00;94.00
12264;DHT22;6194;49.010;8.414;2023-04-08T13:24:32;15.10;93.80
12264;DHT22;6194;49.010;8.414;2023-04-08T13:26:57;15.30;94.20
12264;DHT22;6194;49.010;8.414;2023-04-08T13:29:23;15.70;94.10
12264;DHT22;6194;49.010;8.414;2023-04-08T13:31:49;16.00;93.80
12264;DHT22;6194;49.010;8.414;2023-04-08T13:34:16;16.20;93.40
12264;DHT22;6194;49.010;8.414;2023-04-08T13:36:41;16.50;93.40
12264;DHT22;6194;49.010;8.414;2023-04-08T13:39:07;15.90;92.10
12264;DHT22;6194;49.010;8.414;2023-04-08T13:41:32;15.70;92.40
12264;DHT22;6194;49.010;8.414;2023-04-08T13:43:59;15.70;92.00
12264;DHT22;6194;49.010;8.414;2023-04-08T13:46:25;15.80;92.10
12264;DHT22;6194;49.010;8.414;2023-04-08T13:48:51;15.40;91.20
12264;DHT22;6194;49.010;8.414;2023-04-08T13:51:16;14.80;92.30
12264;DHT22;6194;49.010;8.414;2023-04-08T13:53:42;14.50;93.30
12264;DHT22;6194;49.010;8.414;2023-04-08T13:56:07;14.60;94.30
12264;DHT22;6194;49.010;8.414;2023-04-08T13:58:33;14.20;94.50
12264;DHT22;6194;49.010;8.414;2023-04-08T14:00:58;14.60;94.60
12264;DHT22;6194;49.010;8.414;2023-04-08T14:03:24;14.40;94.40
12264;DHT22;6194;49.010;8.414;2023-04-08T14:05:50;14.30;94.80
12264;DHT22;6194;49.010;8.414;2023-04-08T14:08:16;14.60;94.70
12264;DHT22;6194;49.010;8.414;2023-04-08T14:10:52;14.70;94.70
12264;DHT22;6194;49.010;8.414;2023-04-08T14:13:19;14.70;94.80
12264;DHT22;6194;49.010;8.414;2023-04-08T14:15:45;14.80;95.00
12264;DHT22;6194;49.010;8.414;2023-04-08T14:18:11;15.00;95.00
12264;DHT22;6194;49.010;8.414;2023-04-08T14:20:37;14.80;95.00
12264;DHT22;6194;49.010;8.414;2023-04-08T14:23:03;14.80;95.80
12264;DHT22;6194;49.010;8.414;2023-04-08T14:25:29;14.90;95.60
12264;DHT22;6194;49.010;8.414;2023-04-08T14:27:55;14.20;96.40
12264;DHT22;6194;49.010;8.414;2023-04-08T14:30:21;14.30;97.00
12264;DHT22;6194;49.010;8.414;2023-04-08T14:32:47;14.00;98.00
12264;DHT22;6194;49.010;8.414;2023-04-08T14:35:12;13.80;98.20
12264;DHT22;6194;49.010;8.414;2023-04-08T14:37:38;13.80;98.80
12264;DHT22;6194;49.010;8.414;2023-04-08T14:40:05;13.90;98.70
12264;DHT22;6194;49.010;8.414;2023-04-08T14:42:31;13.90;99.10
12264;DHT22;6194;49.010;8.414;2023-04-08T14:44:56;13.90;99.40
12264;DHT22;6194;49.010;8.414;2023-04-08T14:47:22;13.90;99.80
12264;DHT22;6194;49.010;8.414;2023-04-08T14:49:48;13.70;99.90
12264;DHT22;6194;49.010;8.414;2023-04-08T14:52:13;13.70;99.90
12264;DHT22;6194;49.010;8.414;2023-04-08T14:54:39;13.60;99.90
12264;DHT22;6194;49.010;8.414;2023-04-08T14:57:05;14.00;99.90
12264;DHT22;6194;49.010;8.414;2023-04-08T14:59:31;14.40;99.90
12264;DHT22;6194;49.010;8.414;2023-04-08T15:01:57;14.50;99.90
12264;DHT22;6194;49.010;8.414;2023-04-08T15:04:23;14.60;99.90
12264;DHT22;6194;49.010;8.414;2023-04-08T15:06:48;15.00;99.90
12264;DHT22;6194;49.010;8.414;2023-04-08T15:09:14;14.60;99.90
12264;DHT22;6194;49.010;8.414;2023-04-08T15:11:40;14.20;99.90
12264;DHT22;6194;49.010;8.414;2023-04-08T15:14:06;14.60;99.90
12264;DHT22;6194;49.010;8.414;2023-04-08T15:16:31;14.80;99.90
12264;DHT22;6194;49.010;8.414;2023-04-08T15:18:57;15.00;99.90
12264;DHT22;6194;49.010;8.414;2023-04-08T15:21:25;14.80;99.90
12264;DHT22;6194;49.010;8.414;2023-04-08T15:23:51;14.70;99.90
12264;DHT22;6194;49.010;8.414;2023-04-08T15:26:17;14.30;99.90
12264;DHT22;6194;49.010;8.414;2023-04-08T15:28:43;14.20;99.90
12264;DHT22;6194;49.010;8.414;2023-04-08T15:31:08;14.10;99.90
12264;DHT22;6194;49.010;8.414;2023-04-08T15:33:34;14.10;99.90
12264;DHT22;6194;49.010;8.414;2023-04-08T15:36:03;13.90;99.90
12264;DHT22;6194;49.010;8.414;2023-04-08T15:38:29;13.90;99.90
12264;DHT22;6194;49.010;8.414;2023-04-08T15:40:55;14.00;99.90
12264;DHT22;6194;49.010;8.414;2023-04-08T15:43:21;14.00;99.90
12264;DHT22;6194;49.010;8.414;2023-04-08T15:45:46;13.90;99.90
12264;DHT22;6194;49.010;8.414;2023-04-08T15:48:12;13.70;99.90
12264;DHT22;6194;49.010;8.414;2023-04-08T15:50:38;13.60;99.90
12264;DHT22;6194;49.010;8.414;2023-04-08T15:53:04;13.50;99.90
12264;DHT22;6194;49.010;8.414;2023-04-08T15:55:30;13.30;99.90
12264;DHT22;6194;49.010;8.414;2023-04-08T15:57:55;13.50;99.90
12264;DHT22;6194;49.010;8.414;2023-04-08T16:00:22;13.40;99.90
12264;DHT22;6194;49.010;8.414;2023-04-08T16:02:48;13.40;99.90
12264;DHT22;6194;49.010;8.414;2023-04-08T16:05:14;13.40;99.90
12264;DHT22;6194;49.010;8.414;2023-04-08T16:07:40;13.40;99.90
12264;DHT22;6194;49.010;8.414;2023-04-08T16:10:07;13.30;99.90
12264;DHT22;6194;49.010;8.414;2023-04-08T16:12:33;13.30;99.90
12264;DHT22;6194;49.010;8.414;2023-04-08T16:14:59;13.40;99.90